createdAt,value
2022-07-31T00:03:22.594Z,1.90
2022-07-31T00:08:26.455Z,1.98
2022-07-31T00:13:57.404Z,1.98
2022-07-31T00:18:51.178Z,1.80
2022-07-31T00:23:55.104Z,2.00
2022-07-31T00:28:57.502Z,2.28
2022-07-31T00:33:59.903Z,2.03
2022-07-31T00:39:03.919Z,1.90
2022-07-31T00:44:07.562Z,1.70
2022-07-31T00:49:14.853Z,2.28
2022-07-31T00:54:22.623Z,2.00
2022-07-31T00:59:25.572Z,1.98
2022-07-31T01:04:28.004Z,2.05
2022-07-31T01:09:35.157Z,2.13
2022-07-31T01:14:41.014Z,1.95
2022-07-31T01:19:45.801Z,2.13
2022-07-31T01:25:00.825Z,1.98
2022-07-31T01:30:05.979Z,1.70
2022-07-31T01:35:16.680Z,1.92
2022-07-31T01:40:26.364Z,1.50
2022-07-31T01:45:32.868Z,1.52
2022-07-31T01:50:43.236Z,1.80
2022-07-31T01:56:02.772Z,1.90
2022-07-31T02:01:09.323Z,2.08
2022-07-31T02:06:16.311Z,1.60
2022-07-31T02:11:19.880Z,2.00
2022-07-31T02:16:25.136Z,1.95
2022-07-31T02:21:27.516Z,1.83
2022-07-31T02:26:32.208Z,1.80
2022-07-31T02:31:37.774Z,2.00
2022-07-31T02:36:41.441Z,1.80
2022-07-31T02:41:44.899Z,1.83
2022-07-31T02:46:49.389Z,1.60
2022-07-31T02:51:52.496Z,1.83
2022-07-31T02:56:55.809Z,2.00
2022-07-31T03:01:59.815Z,1.83
2022-07-31T03:07:02.550Z,1.83
2022-07-31T03:12:06.075Z,2.08
2022-07-31T03:17:11.265Z,1.67
2022-07-31T03:22:15.536Z,1.83
2022-07-31T03:27:18.185Z,1.95
2022-07-31T03:32:22.243Z,2.30
2022-07-31T03:37:24.561Z,2.35
2022-07-31T03:42:28.639Z,1.98
2022-07-31T03:47:32.659Z,1.98
2022-07-31T03:52:36.221Z,2.15
2022-07-31T03:57:39.083Z,2.38
2022-07-31T04:02:44.660Z,2.22
2022-07-31T04:07:47.258Z,2.70
2022-07-31T04:12:49.685Z,2.33
2022-07-31T04:17:54.389Z,2.53
2022-07-31T04:22:56.753Z,3.15
2022-07-31T04:28:01.161Z,3.22
2022-07-31T04:33:05.132Z,3.25
2022-07-31T04:38:07.670Z,3.42
2022-07-31T04:43:10.086Z,2.92
2022-07-31T04:48:13.970Z,3.40
2022-07-31T04:53:16.319Z,2.92
2022-07-31T04:58:18.770Z,3.30
2022-07-31T05:03:22.571Z,3.05
2022-07-31T05:08:24.942Z,2.42
2022-07-31T05:13:27.270Z,2.88
2022-07-31T05:18:31.119Z,3.28
2022-07-31T05:23:33.489Z,2.90
2022-07-31T05:28:36.151Z,2.78
2022-07-31T05:33:40.142Z,3.20
2022-07-31T05:38:42.963Z,2.85
2022-07-31T05:43:45.482Z,3.35
2022-07-31T05:48:49.448Z,3.25
2022-07-31T05:53:54.786Z,3.03
2022-07-31T05:58:57.086Z,2.78
2022-07-31T06:04:00.971Z,3.08
2022-07-31T06:09:04.757Z,2.70
2022-07-31T06:14:07.611Z,3.03
2022-07-31T06:19:11.574Z,2.67
2022-07-31T06:24:13.985Z,2.72
2022-07-31T06:29:16.505Z,2.60
2022-07-31T06:34:20.624Z,2.90
2022-07-31T06:39:23.039Z,2.70
2022-07-31T06:44:32.246Z,3.00
2022-07-31T06:49:36.171Z,3.17
2022-07-31T06:54:38.782Z,2.95
2022-07-31T06:59:41.290Z,3.17
2022-07-31T07:05:05.093Z,2.83
2022-07-31T07:10:07.763Z,2.50
2022-07-31T07:15:10.835Z,2.83
2022-07-31T07:20:14.750Z,3.03
2022-07-31T07:25:17.433Z,2.67
2022-07-31T07:30:20.200Z,3.10
2022-07-31T07:35:24.038Z,2.90
2022-07-31T07:40:27.405Z,2.90
2022-07-31T07:45:29.865Z,2.75
2022-07-31T07:50:34.241Z,2.53
2022-07-31T07:55:37.558Z,2.75
2022-07-31T08:00:41.151Z,2.50
2022-07-31T08:05:45.237Z,2.70
2022-07-31T08:10:47.676Z,2.17
2022-07-31T08:15:50.096Z,2.33
2022-07-31T08:20:54.076Z,2.33
2022-07-31T08:25:56.569Z,2.42
2022-07-31T08:31:01.395Z,2.30
2022-07-31T08:36:05.996Z,2.00
2022-07-31T08:41:08.382Z,2.05
2022-07-31T08:46:12.797Z,2.13
2022-07-31T08:51:17.877Z,2.20
2022-07-31T08:56:21.201Z,2.25
2022-07-31T09:01:23.867Z,1.95
2022-07-31T09:06:27.876Z,2.05
2022-07-31T09:11:30.508Z,1.75
2022-07-31T09:16:45.136Z,2.00
2022-07-31T09:21:49.209Z,2.28
2022-07-31T09:26:54.156Z,2.30
2022-07-31T09:32:08.377Z,2.80
2022-07-31T09:37:14.843Z,2.20
2022-07-31T09:47:24.775Z,2.00
2022-07-31T09:52:30.189Z,2.58
2022-07-31T09:57:33.036Z,2.20
2022-07-31T10:02:38.667Z,2.17
2022-07-31T10:07:43.928Z,2.40
2022-07-31T10:12:51.253Z,1.90
2022-07-31T10:17:55.471Z,1.92
2022-07-31T10:23:09.710Z,2.60
2022-07-31T10:28:13.071Z,2.17
2022-07-31T10:33:42.046Z,2.25
2022-07-31T10:38:48.223Z,2.90
2022-07-31T10:43:55.133Z,2.92
2022-07-31T10:48:57.837Z,2.95
2022-07-31T10:54:04.361Z,3.42
2022-07-31T10:59:10.958Z,3.40
2022-07-31T11:04:27.467Z,3.67
2022-07-31T11:09:31.566Z,3.10
2022-07-31T11:14:35.750Z,4.40
2022-07-31T11:19:41.103Z,4.20
2022-07-31T11:24:54.091Z,3.75
2022-07-31T11:30:09.068Z,3.70
2022-07-31T11:35:26.030Z,5.68
2022-07-31T11:40:30.241Z,5.15
2022-07-31T11:45:51.951Z,3.97
2022-07-31T11:50:57.591Z,4.05
2022-07-31T11:56:03.109Z,3.33
2022-07-31T12:01:05.791Z,3.50
2022-07-31T12:06:10.689Z,3.30
2022-07-31T12:11:17.544Z,3.78
2022-07-31T12:21:31.225Z,4.35
2022-07-31T12:26:35.445Z,4.03
2022-07-31T12:31:45.565Z,4.60
2022-07-31T12:36:58.644Z,4.13
2022-07-31T12:42:02.544Z,5.00
2022-07-31T12:47:06.660Z,4.80
2022-07-31T12:52:09.947Z,4.10
2022-07-31T12:57:14.257Z,3.00
2022-07-31T13:02:22.485Z,2.90
2022-07-31T13:07:26.306Z,3.13
2022-07-31T13:12:30.425Z,3.70
2022-07-31T13:17:39.880Z,3.67
2022-07-31T13:22:45.024Z,2.88
2022-07-31T13:27:49.145Z,2.47
2022-07-31T13:32:51.636Z,2.30
2022-07-31T13:37:54.295Z,2.42
2022-07-31T13:42:58.316Z,2.88
2022-07-31T13:48:03.331Z,3.22
2022-07-31T13:53:12.050Z,3.92
2022-07-31T13:58:16.315Z,4.30
2022-07-31T14:03:21.338Z,4.38
2022-07-31T14:08:29.736Z,4.72
2022-07-31T14:13:42.490Z,5.43
2022-07-31T14:18:45.610Z,5.22
2022-07-31T14:23:50.328Z,5.57
2022-07-31T14:28:56.772Z,6.07
2022-07-31T14:34:01.830Z,5.80
2022-07-31T14:39:05.715Z,6.50
2022-07-31T14:44:10.396Z,7.50
2022-07-31T14:49:14.091Z,8.20
2022-07-31T14:54:17.196Z,8.93
2022-07-31T14:59:22.076Z,9.60
2022-07-31T15:04:25.447Z,8.63
2022-07-31T15:09:28.879Z,7.80
2022-07-31T15:14:34.045Z,7.57
2022-07-31T15:19:37.039Z,8.95
2022-07-31T15:24:49.105Z,7.72
2022-07-31T15:30:04.983Z,8.52
2022-07-31T15:35:12.637Z,8.32
2022-07-31T15:40:16.275Z,8.27
2022-07-31T15:45:21.051Z,8.38
2022-07-31T15:50:23.884Z,8.65
2022-07-31T15:55:26.776Z,8.63
2022-07-31T16:00:30.725Z,8.27
2022-07-31T16:05:36.731Z,8.38
2022-07-31T16:10:41.526Z,6.65
2022-07-31T16:15:45.444Z,7.63
2022-07-31T16:20:48.164Z,7.68
2022-07-31T16:25:50.965Z,6.60
2022-07-31T16:30:54.843Z,5.63
2022-07-31T16:35:57.306Z,5.65
2022-07-31T16:40:59.765Z,5.18
2022-07-31T16:46:03.803Z,5.15
2022-07-31T16:51:06.404Z,4.40
2022-07-31T16:56:08.744Z,3.45
2022-07-31T17:01:54.020Z,3.30
2022-07-31T17:06:38.908Z,2.30
2022-07-31T17:11:41.706Z,1.77
2022-07-31T17:16:50.505Z,0.70
2022-07-31T17:21:53.605Z,0.63
2022-07-31T17:26:56.204Z,0.40
2022-07-31T17:32:00.330Z,0.40
2022-07-31T17:37:03.514Z,0.47
2022-07-31T17:42:06.863Z,0.35
2022-07-31T17:47:15.431Z,0.40
2022-07-31T17:52:18.204Z,0.20
2022-07-31T17:57:20.884Z,0.20
2022-07-31T18:02:28.353Z,0.30
2022-07-31T18:07:31.162Z,0.30
2022-07-31T18:12:56.943Z,0.30
2022-07-31T18:17:57.903Z,0.40
2022-07-31T18:23:00.504Z,0.22
2022-07-31T18:28:03.075Z,0.17
2022-07-31T18:33:07.456Z,0.17
2022-07-31T18:38:10.244Z,0.30
2022-07-31T18:43:12.876Z,0.28
2022-07-31T18:48:17.144Z,1.50
2022-07-31T18:53:21.182Z,0.30
2022-07-31T18:58:24.279Z,0.30
2022-07-31T19:03:28.795Z,2.47
2022-07-31T19:08:31.477Z,0.82
2022-07-31T19:13:36.247Z,0.93
2022-07-31T19:18:43.955Z,0.50
2022-07-31T19:23:47.404Z,0.32
2022-07-31T19:28:50.163Z,0.30
2022-07-31T19:33:54.482Z,0.10
2022-07-31T19:38:57.814Z,0.10
2022-07-31T19:44:00.883Z,0.30
2022-07-31T19:49:05.478Z,0.20
2022-07-31T19:54:08.816Z,0.20
2022-07-31T19:59:11.824Z,0.40
2022-07-31T20:04:16.136Z,0.20
2022-07-31T20:09:19.123Z,0.20
2022-07-31T20:14:21.649Z,0.20
2022-07-31T20:19:25.696Z,0.13
2022-07-31T20:24:28.418Z,0.30
2022-07-31T20:29:31.603Z,0.17
2022-07-31T20:34:36.175Z,0.40
2022-07-31T20:39:38.843Z,0.30
2022-07-31T20:44:41.383Z,0.22
2022-07-31T20:49:45.692Z,0.30
2022-07-31T20:54:48.262Z,0.20
2022-07-31T20:59:50.882Z,0.20
2022-07-31T21:04:54.982Z,0.32
2022-07-31T21:09:58.495Z,0.40
2022-07-31T21:15:02.062Z,0.40
2022-07-31T21:20:07.575Z,0.80
2022-07-31T21:25:11.033Z,0.63
2022-07-31T21:30:14.304Z,0.50
2022-07-31T21:35:21.811Z,0.70
2022-07-31T21:40:40.499Z,0.65
2022-07-31T21:45:50.631Z,0.80
2022-07-31T21:51:01.194Z,0.80
2022-07-31T21:56:04.175Z,0.93
2022-07-31T22:01:06.850Z,0.85
2022-07-31T22:06:11.522Z,0.88
2022-07-31T22:11:14.298Z,1.15
2022-07-31T22:16:16.763Z,1.60
2022-07-31T22:21:22.536Z,1.63
2022-07-31T22:26:25.953Z,1.48
2022-07-31T22:31:28.783Z,1.95
2022-07-31T22:36:34.456Z,1.70
2022-07-31T22:41:37.004Z,2.10
2022-07-31T22:46:39.592Z,2.08
2022-07-31T22:51:46.500Z,1.83
2022-07-31T22:56:49.449Z,1.95
2022-07-31T23:01:52.144Z,2.97
2022-07-31T23:06:56.292Z,2.33
2022-07-31T23:11:59.380Z,2.63
2022-07-31T23:17:01.794Z,2.58
2022-07-31T23:22:05.996Z,3.35
2022-07-31T23:27:08.678Z,3.88
2022-07-31T23:32:11.109Z,3.53
2022-07-31T23:37:14.955Z,4.03
2022-07-31T23:42:17.417Z,4.15
2022-07-31T23:47:19.795Z,3.42
2022-07-31T23:52:25.043Z,2.53
2022-07-31T23:57:27.454Z,2.63
